Mount Hood, Oregon
Current Conditions -  °F | °C
As of 9:59 PM on Sunday 21 Dec 2014 (Local Time) from K4S2 Reporting Station
Moderate Rain Moderate Rain  
Wind Chill: 46°   Ceiling: 2400
Heat Index: 46°   Visibility: 5mi
Dew Point: 46°   Wind: 0mph
Humidity: 100%   Direction: NA
Pressure: 30.13"   Gusts: NA
Location:  45.3977°N, 121.59°W
Report Text: K4S2 220559Z AUTO 00000KT 5SM RA BKN024 BKN030 OVC050 08/08 A3013 RMK AO2 P0004 SLP219 T00800080
Loading
Personal Weather Stations






























Interactive Weather Map New forecast layout! Learn more

10-Day Weather Forecast

Advertisements
Track Severe Weather on mobile